sensor_id;sensor_type;location;lat;lon;timestamp;P1;durP1;ratioP1;P2;durP2;ratioP2
43696;SDS011;29301;47.620;19.560;2023-05-23T00:01:12;0.30;;;0.30;;
43696;SDS011;29301;47.620;19.560;2023-05-23T00:03:41;0.30;;;0.30;;
43696;SDS011;29301;47.620;19.560;2023-05-23T00:06:07;0.30;;;0.30;;
43696;SDS011;29301;47.620;19.560;2023-05-23T00:08:33;0.40;;;0.30;;
43696;SDS011;29301;47.620;19.560;2023-05-23T00:10:58;0.40;;;0.30;;
43696;SDS011;29301;47.620;19.560;2023-05-23T00:13:24;0.30;;;0.30;;
43696;SDS011;29301;47.620;19.560;2023-05-23T00:15:50;0.40;;;0.30;;
43696;SDS011;29301;47.620;19.560;2023-05-23T00:18:16;0.40;;;0.30;;
43696;SDS011;29301;47.620;19.560;2023-05-23T00:20:42;0.40;;;0.30;;
43696;SDS011;29301;47.620;19.560;2023-05-23T00:23:09;0.40;;;0.30;;
43696;SDS011;29301;47.620;19.560;2023-05-23T00:25:42;0.30;;;0.30;;
43696;SDS011;29301;47.620;19.560;2023-05-23T00:28:12;0.40;;;0.30;;
43696;SDS011;29301;47.620;19.560;2023-05-23T00:30:39;0.30;;;0.30;;
43696;SDS011;29301;47.620;19.560;2023-05-23T00:33:05;0.30;;;0.30;;
43696;SDS011;29301;47.620;19.560;2023-05-23T00:35:31;0.30;;;0.30;;
43696;SDS011;29301;47.620;19.560;2023-05-23T00:37:56;0.40;;;0.30;;
43696;SDS011;29301;47.620;19.560;2023-05-23T00:40:22;0.30;;;0.30;;
43696;SDS011;29301;47.620;19.560;2023-05-23T00:42:48;0.40;;;0.30;;
43696;SDS011;29301;47.620;19.560;2023-05-23T00:45:14;0.40;;;0.30;;
43696;SDS011;29301;47.620;19.560;2023-05-23T00:47:41;0.30;;;0.30;;
43696;SDS011;29301;47.620;19.560;2023-05-23T00:50:07;0.30;;;0.30;;
43696;SDS011;29301;47.620;19.560;2023-05-23T00:52:36;0.30;;;0.30;;
43696;SDS011;29301;47.620;19.560;2023-05-23T00:55:03;0.40;;;0.30;;
43696;SDS011;29301;47.620;19.560;2023-05-23T00:57:29;0.40;;;0.30;;
43696;SDS011;29301;47.620;19.560;2023-05-23T00:59:55;0.30;;;0.30;;
43696;SDS011;29301;47.620;19.560;2023-05-23T01:02:21;0.40;;;0.30;;
43696;SDS011;29301;47.620;19.560;2023-05-23T01:04:48;0.30;;;0.30;;
43696;SDS011;29301;47.620;19.560;2023-05-23T01:07:20;0.40;;;0.30;;
43696;SDS011;29301;47.620;19.560;2023-05-23T01:09:46;0.40;;;0.30;;
43696;SDS011;29301;47.620;19.560;2023-05-23T01:12:19;0.30;;;0.30;;
43696;SDS011;29301;47.620;19.560;2023-05-23T01:20:27;0.30;;;0.30;;
43696;SDS011;29301;47.620;19.560;2023-05-23T01:28:37;0.40;;;0.30;;
43696;SDS011;29301;47.620;19.560;2023-05-23T01:31:07;0.40;;;0.30;;
43696;SDS011;29301;47.620;19.560;2023-05-23T01:33:35;0.30;;;0.30;;
43696;SDS011;29301;47.620;19.560;2023-05-23T01:36:04;0.40;;;0.30;;
43696;SDS011;29301;47.620;19.560;2023-05-23T01:38:30;0.40;;;0.30;;
43696;SDS011;29301;47.620;19.560;2023-05-23T01:40:55;0.30;;;0.30;;
43696;SDS011;29301;47.620;19.560;2023-05-23T01:43:22;0.30;;;0.30;;
43696;SDS011;29301;47.620;19.560;2023-05-23T01:45:48;0.30;;;0.30;;
43696;SDS011;29301;47.620;19.560;2023-05-23T01:48:16;0.40;;;0.30;;
43696;SDS011;29301;47.620;19.560;2023-05-23T01:50:43;0.40;;;0.30;;
43696;SDS011;29301;47.620;19.560;2023-05-23T01:53:11;0.30;;;0.30;;
43696;SDS011;29301;47.620;19.560;2023-05-23T01:55:40;0.40;;;0.30;;
43696;SDS011;29301;47.620;19.560;2023-05-23T01:58:06;0.30;;;0.30;;
43696;SDS011;29301;47.620;19.560;2023-05-23T02:00:33;0.40;;;0.30;;
43696;SDS011;29301;47.620;19.560;2023-05-23T02:02:58;0.40;;;0.30;;
43696;SDS011;29301;47.620;19.560;2023-05-23T02:05:24;0.40;;;0.30;;
43696;SDS011;29301;47.620;19.560;2023-05-23T02:07:51;0.40;;;0.30;;
43696;SDS011;29301;47.620;19.560;2023-05-23T02:10:17;0.30;;;0.30;;
43696;SDS011;29301;47.620;19.560;2023-05-23T02:12:43;0.30;;;0.30;;
43696;SDS011;29301;47.620;19.560;2023-05-23T02:15:09;0.30;;;0.30;;
43696;SDS011;29301;47.620;19.560;2023-05-23T02:17:35;0.40;;;0.30;;
43696;SDS011;29301;47.620;19.560;2023-05-23T02:20:02;0.40;;;0.30;;
43696;SDS011;29301;47.620;19.560;2023-05-23T02:22:30;0.40;;;0.30;;
43696;SDS011;29301;47.620;19.560;2023-05-23T02:24:56;0.30;;;0.30;;
43696;SDS011;29301;47.620;19.560;2023-05-23T02:27:21;0.30;;;0.30;;
43696;SDS011;29301;47.620;19.560;2023-05-23T02:29:47;0.40;;;0.30;;
43696;SDS011;29301;47.620;19.560;2023-05-23T02:32:13;0.30;;;0.30;;
43696;SDS011;29301;47.620;19.560;2023-05-23T02:34:38;0.40;;;0.30;;
43696;SDS011;29301;47.620;19.560;2023-05-23T02:37:04;0.40;;;0.30;;
43696;SDS011;29301;47.620;19.560;2023-05-23T02:39:30;0.30;;;0.30;;
43696;SDS011;29301;47.620;19.560;2023-05-23T02:41:55;0.40;;;0.30;;
43696;SDS011;29301;47.620;19.560;2023-05-23T02:44:21;0.40;;;0.30;;
43696;SDS011;29301;47.620;19.560;2023-05-23T02:46:47;0.40;;;0.30;;
43696;SDS011;29301;47.620;19.560;2023-05-23T02:49:12;0.40;;;0.30;;
43696;SDS011;29301;47.620;19.560;2023-05-23T02:51:38;0.30;;;0.30;;
43696;SDS011;29301;47.620;19.560;2023-05-23T02:54:03;0.40;;;0.30;;
43696;SDS011;29301;47.620;19.560;2023-05-23T02:56:30;0.40;;;0.30;;
43696;SDS011;29301;47.620;19.560;2023-05-23T02:58:55;0.30;;;0.30;;
43696;SDS011;29301;47.620;19.560;2023-05-23T03:01:21;0.40;;;0.30;;
43696;SDS011;29301;47.620;19.560;2023-05-23T03:03:47;0.32;;;0.30;;
43696;SDS011;29301;47.620;19.560;2023-05-23T03:06:12;0.40;;;0.30;;
43696;SDS011;29301;47.620;19.560;2023-05-23T03:08:41;0.40;;;0.30;;
43696;SDS011;29301;47.620;19.560;2023-05-23T03:11:07;0.40;;;0.30;;
43696;SDS011;29301;47.620;19.560;2023-05-23T03:13:33;0.40;;;0.30;;
43696;SDS011;29301;47.620;19.560;2023-05-23T03:15:59;0.30;;;0.30;;
43696;SDS011;29301;47.620;19.560;2023-05-23T03:18:25;0.40;;;0.30;;
43696;SDS011;29301;47.620;19.560;2023-05-23T03:20:51;0.30;;;0.30;;
43696;SDS011;29301;47.620;19.560;2023-05-23T03:23:17;0.40;;;0.30;;
43696;SDS011;29301;47.620;19.560;2023-05-23T03:25:42;0.40;;;0.30;;
43696;SDS011;29301;47.620;19.560;2023-05-23T03:28:08;0.40;;;0.30;;
43696;SDS011;29301;47.620;19.560;2023-05-23T03:30:36;0.40;;;0.30;;
43696;SDS011;29301;47.620;19.560;2023-05-23T03:33:02;0.40;;;0.30;;
43696;SDS011;29301;47.620;19.560;2023-05-23T03:35:28;0.40;;;0.30;;
43696;SDS011;29301;47.620;19.560;2023-05-23T03:37:54;0.40;;;0.30;;
43696;SDS011;29301;47.620;19.560;2023-05-23T03:40:19;0.40;;;0.30;;
43696;SDS011;29301;47.620;19.560;2023-05-23T03:42:46;0.40;;;0.30;;
43696;SDS011;29301;47.620;19.560;2023-05-23T03:45:13;0.40;;;0.30;;
43696;SDS011;29301;47.620;19.560;2023-05-23T03:47:39;0.40;;;0.30;;
43696;SDS011;29301;47.620;19.560;2023-05-23T03:50:05;0.40;;;0.30;;
43696;SDS011;29301;47.620;19.560;2023-05-23T03:52:31;0.40;;;0.30;;
43696;SDS011;29301;47.620;19.560;2023-05-23T03:54:57;0.40;;;0.30;;
43696;SDS011;29301;47.620;19.560;2023-05-23T03:57:22;0.40;;;0.30;;
43696;SDS011;29301;47.620;19.560;2023-05-23T03:59:48;0.40;;;0.30;;
43696;SDS011;29301;47.620;19.560;2023-05-23T04:02:14;0.40;;;0.30;;
43696;SDS011;29301;47.620;19.560;2023-05-23T04:04:40;0.40;;;0.30;;
43696;SDS011;29301;47.620;19.560;2023-05-23T04:07:05;0.40;;;0.30;;
43696;SDS011;29301;47.620;19.560;2023-05-23T04:09:33;0.40;;;0.40;;
43696;SDS011;29301;47.620;19.560;2023-05-23T04:11:58;0.40;;;0.40;;
43696;SDS011;29301;47.620;19.560;2023-05-23T04:14:25;0.38;;;0.30;;
43696;SDS011;29301;47.620;19.560;2023-05-23T04:16:51;0.40;;;0.30;;
43696;SDS011;29301;47.620;19.560;2023-05-23T04:19:17;0.30;;;0.30;;
43696;SDS011;29301;47.620;19.560;2023-05-23T04:21:43;0.40;;;0.30;;
43696;SDS011;29301;47.620;19.560;2023-05-23T04:24:09;0.40;;;0.30;;
43696;SDS011;29301;47.620;19.560;2023-05-23T04:26:34;0.40;;;0.30;;
43696;SDS011;29301;47.620;19.560;2023-05-23T04:29:00;0.38;;;0.30;;
43696;SDS011;29301;47.620;19.560;2023-05-23T04:31:27;0.40;;;0.30;;
43696;SDS011;29301;47.620;19.560;2023-05-23T04:33:53;0.40;;;0.30;;
43696;SDS011;29301;47.620;19.560;2023-05-23T04:36:19;0.40;;;0.30;;
43696;SDS011;29301;47.620;19.560;2023-05-23T04:38:47;0.40;;;0.30;;
43696;SDS011;29301;47.620;19.560;2023-05-23T04:41:13;0.40;;;0.30;;
43696;SDS011;29301;47.620;19.560;2023-05-23T04:43:40;0.40;;;0.30;;
43696;SDS011;29301;47.620;19.560;2023-05-23T04:46:07;0.40;;;0.30;;
43696;SDS011;29301;47.620;19.560;2023-05-23T04:48:34;0.30;;;0.30;;
43696;SDS011;29301;47.620;19.560;2023-05-23T04:51:01;0.40;;;0.35;;
43696;SDS011;29301;47.620;19.560;2023-05-23T04:53:30;0.40;;;0.30;;
43696;SDS011;29301;47.620;19.560;2023-05-23T04:55:55;0.40;;;0.30;;
43696;SDS011;29301;47.620;19.560;2023-05-23T04:58:21;0.35;;;0.30;;
43696;SDS011;29301;47.620;19.560;2023-05-23T05:00:47;0.30;;;0.30;;
43696;SDS011;29301;47.620;19.560;2023-05-23T05:03:12;0.30;;;0.30;;
43696;SDS011;29301;47.620;19.560;2023-05-23T05:05:38;0.40;;;0.30;;
43696;SDS011;29301;47.620;19.560;2023-05-23T05:08:04;0.40;;;0.30;;
43696;SDS011;29301;47.620;19.560;2023-05-23T05:10:30;0.40;;;0.30;;
43696;SDS011;29301;47.620;19.560;2023-05-23T05:12:56;0.30;;;0.30;;
43696;SDS011;29301;47.620;19.560;2023-05-23T05:15:21;0.40;;;0.30;;
43696;SDS011;29301;47.620;19.560;2023-05-23T05:17:47;0.30;;;0.20;;
43696;SDS011;29301;47.620;19.560;2023-05-23T05:20:13;0.30;;;0.30;;
43696;SDS011;29301;47.620;19.560;2023-05-23T05:22:39;0.40;;;0.30;;
43696;SDS011;29301;47.620;19.560;2023-05-23T05:25:05;0.30;;;0.30;;
43696;SDS011;29301;47.620;19.560;2023-05-23T05:27:32;0.30;;;0.30;;
43696;SDS011;29301;47.620;19.560;2023-05-23T05:29:58;0.30;;;0.30;;
43696;SDS011;29301;47.620;19.560;2023-05-23T05:32:29;0.35;;;0.30;;
43696;SDS011;29301;47.620;19.560;2023-05-23T05:35:01;0.40;;;0.30;;
43696;SDS011;29301;47.620;19.560;2023-05-23T05:37:27;0.30;;;0.30;;
43696;SDS011;29301;47.620;19.560;2023-05-23T05:39:53;0.30;;;0.30;;
43696;SDS011;29301;47.620;19.560;2023-05-23T05:42:20;0.30;;;0.30;;
43696;SDS011;29301;47.620;19.560;2023-05-23T05:44:46;0.30;;;0.30;;
43696;SDS011;29301;47.620;19.560;2023-05-23T05:47:13;0.30;;;0.30;;
43696;SDS011;29301;47.620;19.560;2023-05-23T05:49:39;0.40;;;0.30;;
43696;SDS011;29301;47.620;19.560;2023-05-23T05:52:05;0.30;;;0.30;;
43696;SDS011;29301;47.620;19.560;2023-05-23T05:54:32;0.30;;;0.30;;
43696;SDS011;29301;47.620;19.560;2023-05-23T05:56:57;0.30;;;0.30;;
43696;SDS011;29301;47.620;19.560;2023-05-23T05:59:23;0.40;;;0.25;;
43696;SDS011;29301;47.620;19.560;2023-05-23T06:01:49;0.30;;;0.30;;
43696;SDS011;29301;47.620;19.560;2023-05-23T06:04:16;0.40;;;0.30;;
43696;SDS011;29301;47.620;19.560;2023-05-23T06:06:42;0.30;;;0.20;;
43696;SDS011;29301;47.620;19.560;2023-05-23T06:09:08;0.30;;;0.30;;
43696;SDS011;29301;47.620;19.560;2023-05-23T06:11:34;0.30;;;0.30;;
43696;SDS011;29301;47.620;19.560;2023-05-23T06:14:03;0.40;;;0.30;;
43696;SDS011;29301;47.620;19.560;2023-05-23T06:16:29;0.30;;;0.20;;
43696;SDS011;29301;47.620;19.560;2023-05-23T06:18:55;0.30;;;0.20;;
43696;SDS011;29301;47.620;19.560;2023-05-23T06:21:20;0.40;;;0.28;;
43696;SDS011;29301;47.620;19.560;2023-05-23T06:23:46;0.40;;;0.30;;
43696;SDS011;29301;47.620;19.560;2023-05-23T06:26:12;0.30;;;0.20;;
43696;SDS011;29301;47.620;19.560;2023-05-23T06:28:37;0.30;;;0.20;;
43696;SDS011;29301;47.620;19.560;2023-05-23T06:31:06;0.30;;;0.20;;
43696;SDS011;29301;47.620;19.560;2023-05-23T06:33:34;0.30;;;0.20;;
43696;SDS011;29301;47.620;19.560;2023-05-23T06:36:00;0.30;;;0.20;;
43696;SDS011;29301;47.620;19.560;2023-05-23T06:38:26;0.30;;;0.20;;
43696;SDS011;29301;47.620;19.560;2023-05-23T06:40:53;0.30;;;0.20;;
43696;SDS011;29301;47.620;19.560;2023-05-23T06:43:20;0.30;;;0.20;;
43696;SDS011;29301;47.620;19.560;2023-05-23T06:45:45;0.25;;;0.20;;
43696;SDS011;29301;47.620;19.560;2023-05-23T06:48:14;0.40;;;0.20;;
43696;SDS011;29301;47.620;19.560;2023-05-23T06:50:39;0.30;;;0.20;;
43696;SDS011;29301;47.620;19.560;2023-05-23T06:53:05;0.30;;;0.20;;
43696;SDS011;29301;47.620;19.560;2023-05-23T06:55:32;0.30;;;0.20;;
43696;SDS011;29301;47.620;19.560;2023-05-23T06:58:00;0.30;;;0.20;;
43696;SDS011;29301;47.620;19.560;2023-05-23T07:00:28;0.40;;;0.20;;
43696;SDS011;29301;47.620;19.560;2023-05-23T07:02:55;0.30;;;0.20;;
43696;SDS011;29301;47.620;19.560;2023-05-23T07:05:25;0.30;;;0.20;;
43696;SDS011;29301;47.620;19.560;2023-05-23T07:07:52;0.20;;;0.20;;
43696;SDS011;29301;47.620;19.560;2023-05-23T07:10:17;0.30;;;0.20;;
43696;SDS011;29301;47.620;19.560;2023-05-23T07:12:43;0.30;;;0.20;;
43696;SDS011;29301;47.620;19.560;2023-05-23T07:15:10;0.32;;;0.20;;
43696;SDS011;29301;47.620;19.560;2023-05-23T07:17:36;0.30;;;0.20;;
43696;SDS011;29301;47.620;19.560;2023-05-23T07:20:02;0.25;;;0.20;;
43696;SDS011;29301;47.620;19.560;2023-05-23T07:22:28;0.20;;;0.20;;
43696;SDS011;29301;47.620;19.560;2023-05-23T07:24:55;0.20;;;0.20;;
43696;SDS011;29301;47.620;19.560;2023-05-23T07:27:21;0.20;;;0.20;;
43696;SDS011;29301;47.620;19.560;2023-05-23T07:29:46;0.20;;;0.20;;
43696;SDS011;29301;47.620;19.560;2023-05-23T07:32:12;0.20;;;0.20;;
43696;SDS011;29301;47.620;19.560;2023-05-23T07:34:38;0.20;;;0.20;;
43696;SDS011;29301;47.620;19.560;2023-05-23T07:37:05;0.20;;;0.20;;
43696;SDS011;29301;47.620;19.560;2023-05-23T07:39:30;0.20;;;0.20;;
43696;SDS011;29301;47.620;19.560;2023-05-23T07:41:56;0.20;;;0.20;;
43696;SDS011;29301;47.620;19.560;2023-05-23T07:44:22;0.20;;;0.20;;
43696;SDS011;29301;47.620;19.560;2023-05-23T07:46:47;0.20;;;0.20;;
43696;SDS011;29301;47.620;19.560;2023-05-23T07:49:13;0.20;;;0.20;;
43696;SDS011;29301;47.620;19.560;2023-05-23T07:51:38;0.20;;;0.20;;
43696;SDS011;29301;47.620;19.560;2023-05-23T07:54:05;0.20;;;0.20;;
43696;SDS011;29301;47.620;19.560;2023-05-23T07:56:31;0.20;;;0.20;;
43696;SDS011;29301;47.620;19.560;2023-05-23T07:58:57;0.20;;;0.20;;
43696;SDS011;29301;47.620;19.560;2023-05-23T08:01:22;0.20;;;0.20;;
43696;SDS011;29301;47.620;19.560;2023-05-23T08:03:49;0.20;;;0.20;;
43696;SDS011;29301;47.620;19.560;2023-05-23T08:06:15;0.20;;;0.20;;
43696;SDS011;29301;47.620;19.560;2023-05-23T08:08:40;0.10;;;0.10;;
43696;SDS011;29301;47.620;19.560;2023-05-23T08:11:07;0.17;;;0.17;;
43696;SDS011;29301;47.620;19.560;2023-05-23T08:13:33;0.20;;;0.20;;
43696;SDS011;29301;47.620;19.560;2023-05-23T08:15:59;0.20;;;0.20;;
43696;SDS011;29301;47.620;19.560;2023-05-23T08:18:25;0.17;;;0.17;;
43696;SDS011;29301;47.620;19.560;2023-05-23T08:20:50;0.10;;;0.10;;
43696;SDS011;29301;47.620;19.560;2023-05-23T08:23:17;0.10;;;0.10;;
43696;SDS011;29301;47.620;19.560;2023-05-23T08:25:43;0.10;;;0.10;;
43696;SDS011;29301;47.620;19.560;2023-05-23T08:28:09;0.10;;;0.10;;
43696;SDS011;29301;47.620;19.560;2023-05-23T08:30:35;0.20;;;0.20;;
43696;SDS011;29301;47.620;19.560;2023-05-23T08:33:00;0.10;;;0.10;;
43696;SDS011;29301;47.620;19.560;2023-05-23T08:35:28;0.10;;;0.10;;
43696;SDS011;29301;47.620;19.560;2023-05-23T08:37:59;0.10;;;0.10;;
43696;SDS011;29301;47.620;19.560;2023-05-23T08:40:25;0.10;;;0.10;;
43696;SDS011;29301;47.620;19.560;2023-05-23T08:42:54;0.10;;;0.10;;
43696;SDS011;29301;47.620;19.560;2023-05-23T08:45:20;0.10;;;0.10;;
43696;SDS011;29301;47.620;19.560;2023-05-23T08:47:47;0.10;;;0.10;;
43696;SDS011;29301;47.620;19.560;2023-05-23T08:50:15;0.15;;;0.15;;
43696;SDS011;29301;47.620;19.560;2023-05-23T08:52:57;0.17;;;0.17;;
43696;SDS011;29301;47.620;19.560;2023-05-23T08:55:24;0.10;;;0.10;;
43696;SDS011;29301;47.620;19.560;2023-05-23T08:57:52;0.20;;;0.20;;
43696;SDS011;29301;47.620;19.560;2023-05-23T09:00:18;0.10;;;0.10;;
43696;SDS011;29301;47.620;19.560;2023-05-23T09:02:45;0.10;;;0.10;;
43696;SDS011;29301;47.620;19.560;2023-05-23T09:05:11;0.10;;;0.10;;
43696;SDS011;29301;47.620;19.560;2023-05-23T09:07:41;0.10;;;0.10;;
43696;SDS011;29301;47.620;19.560;2023-05-23T09:10:09;0.10;;;0.10;;
43696;SDS011;29301;47.620;19.560;2023-05-23T09:12:35;0.10;;;0.10;;
43696;SDS011;29301;47.620;19.560;2023-05-23T09:15:04;0.20;;;0.20;;
43696;SDS011;29301;47.620;19.560;2023-05-23T09:17:32;0.10;;;0.10;;
43696;SDS011;29301;47.620;19.560;2023-05-23T09:19:58;0.10;;;0.10;;
43696;SDS011;29301;47.620;19.560;2023-05-23T09:22:24;0.10;;;0.10;;
43696;SDS011;29301;47.620;19.560;2023-05-23T09:24:51;0.10;;;0.10;;
43696;SDS011;29301;47.620;19.560;2023-05-23T09:27:19;0.10;;;0.10;;
43696;SDS011;29301;47.620;19.560;2023-05-23T09:29:45;0.10;;;0.10;;
43696;SDS011;29301;47.620;19.560;2023-05-23T09:32:15;0.10;;;0.10;;
43696;SDS011;29301;47.620;19.560;2023-05-23T09:34:56;0.10;;;0.10;;
43696;SDS011;29301;47.620;19.560;2023-05-23T09:37:24;0.10;;;0.10;;
43696;SDS011;29301;47.620;19.560;2023-05-23T09:40:11;0.10;;;0.10;;
43696;SDS011;29301;47.620;19.560;2023-05-23T09:42:42;0.10;;;0.10;;
43696;SDS011;29301;47.620;19.560;2023-05-23T09:45:12;0.10;;;0.10;;
43696;SDS011;29301;47.620;19.560;2023-05-23T09:47:40;0.10;;;0.10;;
43696;SDS011;29301;47.620;19.560;2023-05-23T09:50:14;0.10;;;0.10;;
43696;SDS011;29301;47.620;19.560;2023-05-23T09:52:39;0.10;;;0.10;;
43696;SDS011;29301;47.620;19.560;2023-05-23T09:55:05;0.10;;;0.10;;
43696;SDS011;29301;47.620;19.560;2023-05-23T09:57:34;0.10;;;0.10;;
43696;SDS011;29301;47.620;19.560;2023-05-23T10:00:05;0.10;;;0.10;;
43696;SDS011;29301;47.620;19.560;2023-05-23T10:13:21;0.10;;;0.10;;
43696;SDS011;29301;47.620;19.560;2023-05-23T10:15:53;0.10;;;0.10;;
43696;SDS011;29301;47.620;19.560;2023-05-23T10:18:25;0.10;;;0.10;;
43696;SDS011;29301;47.620;19.560;2023-05-23T10:20:53;0.10;;;0.10;;
43696;SDS011;29301;47.620;19.560;2023-05-23T10:23:29;0.10;;;0.10;;
43696;SDS011;29301;47.620;19.560;2023-05-23T10:25:57;0.10;;;0.10;;
43696;SDS011;29301;47.620;19.560;2023-05-23T10:28:23;0.10;;;0.10;;
43696;SDS011;29301;47.620;19.560;2023-05-23T10:30:48;0.10;;;0.10;;
43696;SDS011;29301;47.620;19.560;2023-05-23T10:33:15;0.05;;;0.05;;
43696;SDS011;29301;47.620;19.560;2023-05-23T10:35:53;0.10;;;0.10;;
43696;SDS011;29301;47.620;19.560;2023-05-23T10:43:43;0.10;;;0.10;;
43696;SDS011;29301;47.620;19.560;2023-05-23T10:46:18;0.10;;;0.10;;
43696;SDS011;29301;47.620;19.560;2023-05-23T10:48:46;0.10;;;0.10;;
43696;SDS011;29301;47.620;19.560;2023-05-23T10:51:12;0.10;;;0.10;;
43696;SDS011;29301;47.620;19.560;2023-05-23T10:56:07;0.10;;;0.10;;
43696;SDS011;29301;47.620;19.560;2023-05-23T10:58:35;0.10;;;0.10;;
43696;SDS011;29301;47.620;19.560;2023-05-23T11:01:06;0.10;;;0.10;;
43696;SDS011;29301;47.620;19.560;2023-05-23T11:03:48;0.10;;;0.10;;
43696;SDS011;29301;47.620;19.560;2023-05-23T11:09:18;0.10;;;0.10;;
43696;SDS011;29301;47.620;19.560;2023-05-23T11:17:15;0.20;;;0.10;;
43696;SDS011;29301;47.620;19.560;2023-05-23T11:22:31;0.10;;;0.10;;
43696;SDS011;29301;47.620;19.560;2023-05-23T11:24:58;0.10;;;0.10;;
43696;SDS011;29301;47.620;19.560;2023-05-23T11:27:35;0.10;;;0.10;;
43696;SDS011;29301;47.620;19.560;2023-05-23T11:32:28;0.10;;;0.10;;
43696;SDS011;29301;47.620;19.560;2023-05-23T11:34:57;0.10;;;0.10;;
43696;SDS011;29301;47.620;19.560;2023-05-23T11:37:25;0.10;;;0.10;;
43696;SDS011;29301;47.620;19.560;2023-05-23T11:39:51;0.10;;;0.10;;
43696;SDS011;29301;47.620;19.560;2023-05-23T11:42:17;0.10;;;0.10;;
43696;SDS011;29301;47.620;19.560;2023-05-23T11:44:42;0.10;;;0.10;;
43696;SDS011;29301;47.620;19.560;2023-05-23T11:47:09;0.10;;;0.10;;
43696;SDS011;29301;47.620;19.560;2023-05-23T11:49:35;0.10;;;0.10;;
43696;SDS011;29301;47.620;19.560;2023-05-23T11:52:02;0.10;;;0.10;;
43696;SDS011;29301;47.620;19.560;2023-05-23T11:54:30;0.10;;;0.10;;
43696;SDS011;29301;47.620;19.560;2023-05-23T11:56:57;0.10;;;0.10;;
43696;SDS011;29301;47.620;19.560;2023-05-23T11:59:24;0.10;;;0.10;;
43696;SDS011;29301;47.620;19.560;2023-05-23T12:01:51;0.10;;;0.10;;
43696;SDS011;29301;47.620;19.560;2023-05-23T12:04:17;0.10;;;0.10;;
43696;SDS011;29301;47.620;19.560;2023-05-23T12:06:46;0.10;;;0.10;;
43696;SDS011;29301;47.620;19.560;2023-05-23T12:09:13;0.10;;;0.10;;
43696;SDS011;29301;47.620;19.560;2023-05-23T12:11:39;0.10;;;0.10;;
43696;SDS011;29301;47.620;19.560;2023-05-23T12:14:11;0.10;;;0.10;;
43696;SDS011;29301;47.620;19.560;2023-05-23T12:16:41;0.10;;;0.10;;
43696;SDS011;29301;47.620;19.560;2023-05-23T12:19:11;0.10;;;0.10;;
43696;SDS011;29301;47.620;19.560;2023-05-23T12:21:40;0.10;;;0.10;;
43696;SDS011;29301;47.620;19.560;2023-05-23T12:24:14;0.10;;;0.10;;
43696;SDS011;29301;47.620;19.560;2023-05-23T12:26:53;0.10;;;0.10;;
43696;SDS011;29301;47.620;19.560;2023-05-23T12:29:28;0.10;;;0.10;;
43696;SDS011;29301;47.620;19.560;2023-05-23T12:31:59;0.10;;;0.10;;
43696;SDS011;29301;47.620;19.560;2023-05-23T12:34:26;0.10;;;0.10;;
43696;SDS011;29301;47.620;19.560;2023-05-23T12:36:58;0.10;;;0.10;;
43696;SDS011;29301;47.620;19.560;2023-05-23T12:39:27;0.10;;;0.10;;
43696;SDS011;29301;47.620;19.560;2023-05-23T12:41:54;0.10;;;0.10;;
43696;SDS011;29301;47.620;19.560;2023-05-23T12:44:30;0.10;;;0.10;;
43696;SDS011;29301;47.620;19.560;2023-05-23T12:46:56;0.10;;;0.10;;
43696;SDS011;29301;47.620;19.560;2023-05-23T12:49:22;0.10;;;0.10;;
43696;SDS011;29301;47.620;19.560;2023-05-23T12:51:47;0.10;;;0.10;;
43696;SDS011;29301;47.620;19.560;2023-05-23T12:54:13;0.10;;;0.10;;
43696;SDS011;29301;47.620;19.560;2023-05-23T12:56:39;0.10;;;0.10;;
43696;SDS011;29301;47.620;19.560;2023-05-23T12:59:04;0.10;;;0.10;;
43696;SDS011;29301;47.620;19.560;2023-05-23T13:01:30;0.10;;;0.10;;
43696;SDS011;29301;47.620;19.560;2023-05-23T13:03:58;0.10;;;0.10;;
43696;SDS011;29301;47.620;19.560;2023-05-23T13:06:25;0.15;;;0.10;;
43696;SDS011;29301;47.620;19.560;2023-05-23T13:08:51;0.10;;;0.10;;
43696;SDS011;29301;47.620;19.560;2023-05-23T13:11:18;0.10;;;0.10;;
43696;SDS011;29301;47.620;19.560;2023-05-23T13:13:47;0.10;;;0.10;;
43696;SDS011;29301;47.620;19.560;2023-05-23T13:16:14;0.10;;;0.10;;
43696;SDS011;29301;47.620;19.560;2023-05-23T13:18:40;0.10;;;0.10;;
43696;SDS011;29301;47.620;19.560;2023-05-23T13:21:06;0.10;;;0.10;;
43696;SDS011;29301;47.620;19.560;2023-05-23T13:23:32;0.10;;;0.10;;
43696;SDS011;29301;47.620;19.560;2023-05-23T13:25:59;0.10;;;0.10;;
43696;SDS011;29301;47.620;19.560;2023-05-23T13:28:25;0.10;;;0.10;;
43696;SDS011;29301;47.620;19.560;2023-05-23T13:30:51;0.10;;;0.10;;
43696;SDS011;29301;47.620;19.560;2023-05-23T13:33:16;0.10;;;0.10;;
43696;SDS011;29301;47.620;19.560;2023-05-23T13:35:42;0.10;;;0.10;;
43696;SDS011;29301;47.620;19.560;2023-05-23T13:38:08;0.10;;;0.10;;
43696;SDS011;29301;47.620;19.560;2023-05-23T13:40:34;0.10;;;0.10;;
43696;SDS011;29301;47.620;19.560;2023-05-23T13:42:59;0.10;;;0.10;;
43696;SDS011;29301;47.620;19.560;2023-05-23T13:45:25;0.10;;;0.10;;
43696;SDS011;29301;47.620;19.560;2023-05-23T13:47:51;0.10;;;0.10;;
43696;SDS011;29301;47.620;19.560;2023-05-23T13:50:17;0.10;;;0.10;;
43696;SDS011;29301;47.620;19.560;2023-05-23T13:52:42;0.10;;;0.10;;
43696;SDS011;29301;47.620;19.560;2023-05-23T13:55:09;0.10;;;0.10;;
43696;SDS011;29301;47.620;19.560;2023-05-23T13:57:35;0.10;;;0.10;;
43696;SDS011;29301;47.620;19.560;2023-05-23T14:00:01;0.10;;;0.10;;
43696;SDS011;29301;47.620;19.560;2023-05-23T14:02:27;0.10;;;0.10;;
43696;SDS011;29301;47.620;19.560;2023-05-23T14:04:55;0.10;;;0.10;;
43696;SDS011;29301;47.620;19.560;2023-05-23T14:07:22;0.10;;;0.10;;
43696;SDS011;29301;47.620;19.560;2023-05-23T14:09:48;0.10;;;0.10;;
43696;SDS011;29301;47.620;19.560;2023-05-23T14:12:13;0.10;;;0.10;;
43696;SDS011;29301;47.620;19.560;2023-05-23T14:14:39;0.10;;;0.10;;
43696;SDS011;29301;47.620;19.560;2023-05-23T14:17:04;0.10;;;0.10;;
43696;SDS011;29301;47.620;19.560;2023-05-23T14:19:30;0.10;;;0.10;;
43696;SDS011;29301;47.620;19.560;2023-05-23T14:21:56;0.10;;;0.10;;
43696;SDS011;29301;47.620;19.560;2023-05-23T14:24:22;0.10;;;0.10;;
43696;SDS011;29301;47.620;19.560;2023-05-23T14:26:47;0.10;;;0.10;;
43696;SDS011;29301;47.620;19.560;2023-05-23T14:29:14;0.10;;;0.10;;
43696;SDS011;29301;47.620;19.560;2023-05-23T14:31:40;0.10;;;0.10;;
43696;SDS011;29301;47.620;19.560;2023-05-23T14:34:05;0.10;;;0.10;;
43696;SDS011;29301;47.620;19.560;2023-05-23T14:36:31;0.10;;;0.10;;
43696;SDS011;29301;47.620;19.560;2023-05-23T14:38:57;0.10;;;0.10;;
43696;SDS011;29301;47.620;19.560;2023-05-23T14:41:23;0.10;;;0.10;;
43696;SDS011;29301;47.620;19.560;2023-05-23T14:43:48;0.10;;;0.10;;
43696;SDS011;29301;47.620;19.560;2023-05-23T14:46:16;0.10;;;0.10;;
43696;SDS011;29301;47.620;19.560;2023-05-23T14:48:42;0.10;;;0.10;;
43696;SDS011;29301;47.620;19.560;2023-05-23T14:51:07;0.10;;;0.10;;
43696;SDS011;29301;47.620;19.560;2023-05-23T14:53:34;0.10;;;0.10;;
43696;SDS011;29301;47.620;19.560;2023-05-23T14:55:59;0.10;;;0.10;;
43696;SDS011;29301;47.620;19.560;2023-05-23T14:58:25;0.10;;;0.10;;
43696;SDS011;29301;47.620;19.560;2023-05-23T15:00:51;0.10;;;0.10;;
43696;SDS011;29301;47.620;19.560;2023-05-23T15:03:17;0.10;;;0.10;;
43696;SDS011;29301;47.620;19.560;2023-05-23T15:05:43;0.10;;;0.10;;
43696;SDS011;29301;47.620;19.560;2023-05-23T15:08:09;0.10;;;0.10;;
43696;SDS011;29301;47.620;19.560;2023-05-23T15:10:35;0.10;;;0.10;;
43696;SDS011;29301;47.620;19.560;2023-05-23T15:13:01;0.10;;;0.10;;
43696;SDS011;29301;47.620;19.560;2023-05-23T15:15:30;0.10;;;0.10;;